Terminal Aerodrome Forecast
Issued by NWS

Home | Current Version | Previous Version | Text Only | Print | Product List | Glossary On
Versions: 1 2 3 4 5 6 7 8 9 10 11 12
000
FTUS43 KIND 292300
TAFBMG
TAF
KBMG 292320Z 3000/3024 22012KT P6SM -RA BKN050
     FM300200 24014G20KT P6SM VCSH SCT025 BKN040
     FM300600 28008KT P6SM SCT025 BKN035
     FM301300 29007KT P6SM SCT250
      AMD LTD TO CLD VIS AND WIND 3001/3013=

USA.gov is the U.S. government's official web portal to all federal, state and local government web resources and services.